Time;durP1;ratioP1;P1;durP2;ratioP2;P2;SDS_P1;SDS_P2;PMS_P1;PMS_P2;Temp;Humidity;BMP_temperature;BMP_pressure;BME280_temperature;BME280_humidity;BME280_pressure;Samples;Min_cycle;Max_cycle;Signal;HPM_P1;HPM_P2
2023/09/03 00:00:41;;;;;;;14.50;10.25;;;;;;;-143.21;59.52;71867.94;5070769;28;20213;-83
2023/09/03 00:03:11;;;;;;;14.60;10.15;;;;;;;-143.21;59.46;71865.97;5069389;28;20704;-81
2023/09/03 00:05:38;;;;;;;12.32;9.93;;;;;;;-143.21;59.45;71863.97;5068479;28;20200;-81
2023/09/03 00:08:05;;;;;;;11.23;9.80;;;;;;;-143.21;59.41;71860.00;5069354;28;20227;-80
2023/09/03 00:10:34;;;;;;;13.23;9.88;;;;;;;-143.21;59.18;71850.09;5068256;28;20311;-80
2023/09/03 00:13:01;;;;;;;14.57;10.15;;;;;;;-143.21;59.37;71852.06;5069335;28;20205;-81
2023/09/03 00:15:28;;;;;;;15.10;10.50;;;;;;;-143.21;59.52;71852.06;5068544;28;20208;-81
2023/09/03 00:17:55;;;;;;;16.08;10.25;;;;;;;-143.21;59.68;71860.00;5068586;28;20204;-80
2023/09/03 00:20:23;;;;;;;13.45;10.52;;;;;;;-143.21;59.60;71860.00;5068628;28;20874;-80
2023/09/03 00:22:50;;;;;;;17.85;10.13;;;;;;;-143.21;59.83;71867.94;5068726;28;20585;-80
2023/09/03 00:25:19;;;;;;;12.43;10.13;;;;;;;-143.21;59.27;71858.03;5068462;28;20201;-80
2023/09/03 00:27:46;;;;;;;13.73;9.70;;;;;;;-143.21;59.65;71863.97;5068556;28;20225;-81
2023/09/03 00:30:13;;;;;;;14.23;10.13;;;;;;;-143.21;59.68;71867.94;5067700;28;20219;-80
2023/09/03 00:32:40;;;;;;;12.00;9.85;;;;;;;-143.21;59.70;71867.94;5067942;28;20655;-83
2023/09/03 00:35:07;;;;;;;14.10;9.57;;;;;;;-143.21;59.24;71865.97;5068886;28;20661;-82
2023/09/03 00:37:35;;;;;;;12.25;9.32;;;;;;;-143.21;58.89;71860.00;5068948;28;20581;-82
2023/09/03 00:40:02;;;;;;;12.43;9.38;;;;;;;-143.21;58.74;71862.00;5068439;28;20592;-81
2023/09/03 00:42:29;;;;;;;10.82;9.55;;;;;;;-143.21;58.69;71850.09;5068779;28;20247;-82
2023/09/03 00:44:56;;;;;;;15.25;9.32;;;;;;;-143.21;58.75;71852.06;5068706;28;20190;-83
2023/09/03 00:47:23;;;;;;;11.73;9.90;;;;;;;-143.21;58.84;71850.09;5068781;28;20221;-81
2023/09/03 00:49:50;;;;;;;14.02;9.75;;;;;;;-143.21;58.89;71854.06;5068988;28;20213;-83
2023/09/03 00:52:19;;;;;;;11.60;9.82;;;;;;;-143.21;59.08;71854.06;5068559;28;20213;-83
2023/09/03 00:54:47;;;;;;;12.38;9.45;;;;;;;-143.21;59.29;71869.91;5069197;28;20208;-82
2023/09/03 00:57:14;;;;;;;15.43;9.43;;;;;;;-143.21;59.36;71867.94;5065362;28;20220;-82
2023/09/03 00:59:42;;;;;;;15.57;9.95;;;;;;;-143.21;59.24;71865.97;5068694;28;20293;-82
2023/09/03 01:02:12;;;;;;;11.95;9.77;;;;;;;-143.21;59.71;71879.84;5069252;28;20209;-82
2023/09/03 01:04:39;;;;;;;13.68;10.02;;;;;;;-143.21;59.75;71881.81;5068968;28;20260;-82
2023/09/03 01:07:09;;;;;;;13.80;10.10;;;;;;;-143.21;59.86;71889.75;5069327;28;20717;-82
2023/09/03 01:09:36;;;;;;;14.40;9.70;;;;;;;-143.21;59.96;71893.72;5068466;28;20210;-81
2023/09/03 01:12:11;;;;;;;13.85;10.00;;;;;;;-143.21;60.25;71903.63;5071877;28;20648;-81
2023/09/03 01:14:52;;;;;;;12.85;9.55;;;;;;;-143.21;60.43;71909.56;5072005;28;20204;-81
2023/09/03 01:17:31;;;;;;;12.75;9.63;;;;;;;-143.21;60.52;71915.53;5069494;28;20228;-81
2023/09/03 01:20:06;;;;;;;12.07;9.77;;;;;;;-143.21;60.87;71919.50;5072573;28;20197;-81
2023/09/03 01:22:51;;;;;;;16.20;10.02;;;;;;;-143.21;60.71;71917.50;5072320;28;20201;-82
2023/09/03 01:25:31;;;;;;;17.35;10.65;;;;;;;-143.21;60.69;71915.53;5072258;28;20205;-82
2023/09/03 01:28:12;;;;;;;13.57;10.43;;;;;;;-143.21;60.31;71905.63;5069674;28;20216;-82
2023/09/03 01:30:39;;;;;;;15.98;11.30;;;;;;;-143.21;60.65;71905.63;5070310;28;20201;-81
2023/09/03 01:33:09;;;;;;;15.52;10.70;;;;;;;-143.21;60.79;71917.50;5070324;28;20680;-81
2023/09/03 01:35:37;;;;;;;13.70;10.80;;;;;;;-143.21;60.92;71917.50;5071179;28;20217;-82
2023/09/03 01:38:05;;;;;;;18.35;11.50;;;;;;;-143.21;61.11;71921.47;5070948;28;20197;-81
2023/09/03 01:40:33;;;;;;;17.13;11.27;;;;;;;-143.21;61.21;71925.44;5069687;28;20568;-81
2023/09/03 01:42:59;;;;;;;13.57;11.25;;;;;;;-143.21;61.12;71923.47;5071222;28;20220;-82
2023/09/03 01:45:34;;;;;;;14.65;10.68;;;;;;;-143.21;61.38;71929.41;5069922;28;20201;-81
2023/09/03 01:48:11;;;;;;;15.63;10.70;;;;;;;-143.21;61.44;71931.38;5071256;28;20216;-82
2023/09/03 01:50:44;;;;;;;14.77;11.95;;;;;;;-143.21;61.65;71943.28;5071026;28;20640;-82
2023/09/03 01:53:18;;;;;;;14.10;11.50;;;;;;;-143.21;62.22;71955.19;5071384;28;20216;-82
2023/09/03 01:55:52;;;;;;;14.63;11.77;;;;;;;-143.21;62.52;71969.06;5071598;28;20213;-82
2023/09/03 01:58:23;;;;;;;14.80;10.75;;;;;;;-143.21;62.38;71971.06;5068616;28;20221;-82
2023/09/03 02:00:53;;;;;;;13.07;11.05;;;;;;;-143.21;62.86;71984.94;5071572;28;20212;-82
2023/09/03 02:03:20;;;;;;;12.82;10.93;;;;;;;-143.21;62.78;71990.88;5071052;28;20260;-81
2023/09/03 02:05:47;;;;;;;13.35;11.18;;;;;;;-143.21;63.31;72000.78;5067459;28;20201;-80
2023/09/03 02:08:13;;;;;;;15.40;10.48;;;;;;;-143.21;63.49;72002.78;5071107;28;20245;-80
2023/09/03 02:10:40;;;;;;;15.05;11.00;;;;;;;-143.21;63.15;72002.78;5070988;28;20239;-81
2023/09/03 02:13:07;;;;;;;19.65;11.52;;;;;;;-143.21;63.31;72006.75;5071336;28;20208;-81
2023/09/03 02:15:34;;;;;;;14.00;11.10;;;;;;;-143.21;63.32;72026.56;5070479;28;20200;-81
2023/09/03 02:18:02;;;;;;;15.05;10.63;;;;;;;-143.21;63.59;72032.53;5070889;28;20198;-81
2023/09/03 02:20:29;;;;;;;13.05;11.43;;;;;;;-143.21;63.38;72026.56;5070532;28;20209;-80
2023/09/03 02:22:55;;;;;;;13.52;10.75;;;;;;;-143.21;63.96;72046.41;5070623;28;20194;-80
2023/09/03 02:25:22;;;;;;;14.95;10.75;;;;;;;-143.21;64.56;72050.38;5070860;28;20212;-81
2023/09/03 02:27:49;;;;;;;12.68;10.77;;;;;;;-143.21;64.58;72058.31;5070384;28;20247;-80
2023/09/03 02:30:16;;;;;;;16.27;11.10;;;;;;;-143.21;64.68;72050.38;5070412;28;20594;-80
2023/09/03 02:32:43;;;;;;;12.82;10.85;;;;;;;-143.21;64.82;72054.34;5069825;28;20209;-80
2023/09/03 02:35:11;;;;;;;15.23;11.10;;;;;;;-143.21;64.98;72050.38;5070485;28;20218;-82
2023/09/03 02:37:38;;;;;;;14.30;10.60;;;;;;;-143.21;64.86;72052.34;5071025;28;20198;-83
2023/09/03 02:40:06;;;;;;;19.08;11.57;;;;;;;-143.21;64.98;72052.34;5072032;28;20593;-83
2023/09/03 02:42:32;;;;;;;18.08;10.88;;;;;;;-143.21;65.01;72052.34;5070810;28;20292;-82
2023/09/03 02:44:59;;;;;;;16.88;10.73;;;;;;;-143.21;64.83;72048.38;5070447;28;20205;-81
2023/09/03 02:47:27;;;;;;;15.35;11.27;;;;;;;-143.21;64.90;72062.25;5070378;28;20236;-81
2023/09/03 02:49:54;;;;;;;17.75;10.93;;;;;;;-143.21;64.77;72054.34;5070532;28;20204;-81
2023/09/03 02:52:22;;;;;;;14.50;11.18;;;;;;;-143.21;65.05;72056.31;5069998;28;20208;-81
2023/09/03 02:54:49;;;;;;;18.70;10.90;;;;;;;-143.21;65.19;72062.25;5070479;28;20205;-82
2023/09/03 02:57:16;;;;;;;14.93;10.77;;;;;;;-143.21;65.39;72078.13;5070151;28;20201;-81
2023/09/03 02:59:44;;;;;;;17.30;11.38;;;;;;;-143.21;65.67;72086.06;5067628;28;20201;-81
2023/09/03 03:02:11;;;;;;;17.48;11.48;;;;;;;-143.21;65.79;72090.03;5069109;28;20229;-81
2023/09/03 03:04:37;;;;;;;15.15;11.57;;;;;;;-143.21;65.90;72086.06;5069488;28;20241;-82
2023/09/03 03:07:04;;;;;;;16.30;11.63;;;;;;;-143.21;65.84;72088.03;5070527;28;20224;-82
2023/09/03 03:09:33;;;;;;;18.42;12.00;;;;;;;-143.21;66.01;72086.06;5070161;28;20572;-82
2023/09/03 03:11:59;;;;;;;16.05;11.88;;;;;;;-143.21;66.11;72088.03;5070458;28;20198;-82
2023/09/03 03:14:26;;;;;;;15.20;11.68;;;;;;;-143.21;66.38;72094.00;5069886;28;20585;-84
2023/09/03 03:16:53;;;;;;;17.52;11.38;;;;;;;-143.21;66.50;72101.94;5070158;28;20200;-83
2023/09/03 03:19:20;;;;;;;18.52;12.10;;;;;;;-143.21;66.50;72099.94;5070131;28;20197;-83
2023/09/03 03:21:47;;;;;;;15.02;11.20;;;;;;;-143.21;66.44;72095.97;5067356;28;20209;-83
2023/09/03 03:24:13;;;;;;;16.08;11.07;;;;;;;-143.21;66.16;72084.06;5070507;28;20292;-81
2023/09/03 03:26:42;;;;;;;14.43;10.80;;;;;;;-143.21;65.77;72062.25;5069669;28;20885;-81
2023/09/03 03:29:09;;;;;;;15.35;11.02;;;;;;;-143.21;65.38;72052.34;5069661;28;20224;-80
2023/09/03 03:31:36;;;;;;;16.38;11.57;;;;;;;-143.21;65.26;72052.34;5069487;28;20205;-81
2023/09/03 03:34:03;;;;;;;15.23;11.00;;;;;;;-143.21;65.24;72066.22;5069209;28;20200;-81
2023/09/03 03:36:29;;;;;;;14.88;11.25;;;;;;;-143.21;65.74;72086.06;5069617;28;20209;-81
2023/09/03 03:38:56;;;;;;;19.00;11.90;;;;;;;-143.21;66.06;72109.84;5069309;28;20225;-81
2023/09/03 03:41:23;;;;;;;19.17;11.48;;;;;;;-143.21;66.57;72113.81;5068342;28;20216;-80
2023/09/03 03:43:52;;;;;;;18.35;11.70;;;;;;;-143.21;66.60;72117.78;5069230;28;20202;-80
2023/09/03 03:46:20;;;;;;;16.70;11.45;;;;;;;-143.21;66.85;72121.75;5069535;28;20262;-80
2023/09/03 03:48:48;;;;;;;16.50;11.30;;;;;;;-143.21;66.82;72121.75;5066293;28;20229;-88
2023/09/03 03:51:15;;;;;;;15.23;11.13;;;;;;;-143.21;66.74;72125.72;5067980;28;20232;-88
2023/09/03 03:53:43;;;;;;;21.83;11.98;;;;;;;-143.21;66.83;72131.69;5070829;28;20200;-88
2023/09/03 03:56:11;;;;;;;21.48;11.85;;;;;;;-143.21;67.25;72141.59;5069979;28;21064;-88
2023/09/03 03:58:40;;;;;;;18.30;12.23;;;;;;;-143.21;67.42;72145.56;5069094;28;20700;-89
2023/09/03 04:01:13;;;;;;;15.88;11.20;;;;;;;-143.21;67.48;72137.63;5070280;28;20259;-87
2023/09/03 04:03:40;;;;;;;24.60;12.35;;;;;;;-143.21;67.06;72125.72;5070651;28;20498;-87
2023/09/03 04:06:07;;;;;;;18.38;11.80;;;;;;;-143.21;67.15;72139.59;5070906;28;20244;-88
2023/09/03 04:08:36;;;;;;;20.42;12.27;;;;;;;-143.21;67.19;72145.56;5070126;28;20221;-88
2023/09/03 04:11:05;;;;;;;17.00;12.13;;;;;;;-143.21;67.30;72151.50;5070714;28;20200;-88
2023/09/03 04:13:33;;;;;;;17.30;12.10;;;;;;;-143.21;67.49;72161.41;5070265;28;20205;-89
2023/09/03 04:16:00;;;;;;;15.05;11.48;;;;;;;-143.21;67.63;72167.38;5071154;28;20205;-88
2023/09/03 04:18:28;;;;;;;16.05;11.25;;;;;;;-143.21;67.32;72141.59;5070304;28;20284;-90
2023/09/03 04:20:57;;;;;;;16.88;12.13;;;;;;;-143.21;66.32;72107.88;5070147;28;20216;-89
2023/09/03 04:23:24;;;;;;;20.73;12.18;;;;;;;-143.21;65.55;72094.00;5068615;28;20612;-88
2023/09/03 04:25:52;;;;;;;15.95;11.57;;;;;;;-143.21;65.21;72094.00;5068407;28;20216;-88
2023/09/03 04:28:19;;;;;;;20.10;11.93;;;;;;;-143.21;65.51;72095.97;5068240;28;20218;-80
2023/09/03 04:30:47;;;;;;;21.20;12.20;;;;;;;-143.21;65.69;72097.97;5067594;28;20213;-81
2023/09/03 04:33:14;;;;;;;15.43;11.65;;;;;;;-143.21;66.03;72119.78;5065676;28;20565;-82
2023/09/03 04:35:42;;;;;;;17.23;12.13;;;;;;;-143.21;66.48;72141.59;5069097;28;20267;-82
2023/09/03 04:38:09;;;;;;;17.33;12.43;;;;;;;-143.21;66.65;72139.59;5069398;28;20205;-83
2023/09/03 04:40:37;;;;;;;16.73;11.88;;;;;;;-143.21;66.74;72133.66;5068834;28;20225;-80
2023/09/03 04:43:05;;;;;;;20.10;12.20;;;;;;;-143.21;66.38;72125.72;5069510;28;20201;-81
2023/09/03 04:45:32;;;;;;;15.55;11.93;;;;;;;-143.21;66.42;72121.75;5068793;28;20225;-81
2023/09/03 04:47:59;;;;;;;19.52;12.23;;;;;;;-143.21;66.98;72115.81;5072567;28;20224;-82
2023/09/03 04:50:26;;;;;;;18.90;11.70;;;;;;;-143.21;66.58;72107.88;5073107;28;20205;-83
2023/09/03 04:52:56;;;;;;;20.73;12.35;;;;;;;-143.21;66.60;72109.84;5073104;28;20194;-83
2023/09/03 04:55:23;;;;;;;21.05;12.45;;;;;;;-143.21;66.75;72101.94;5072936;28;20197;-82
2023/09/03 04:57:50;;;;;;;15.95;11.73;;;;;;;-143.21;66.39;72103.91;5073324;28;20609;-82
2023/09/03 05:00:17;;;;;;;13.95;11.35;;;;;;;-143.21;66.01;72090.03;5073183;28;20209;-82
2023/09/03 05:02:44;;;;;;;15.00;11.60;;;;;;;-143.21;65.90;72080.13;5073841;28;20205;-82
2023/09/03 05:05:11;;;;;;;16.45;11.90;;;;;;;-143.21;64.91;72036.50;5072554;28;20284;-80
2023/09/03 05:07:37;;;;;;;13.95;10.80;;;;;;;-143.21;64.00;72008.72;5072427;28;20205;-80
2023/09/03 05:10:07;;;;;;;12.93;11.00;;;;;;;-143.21;63.33;71996.81;5072414;28;20229;-80
2023/09/03 05:12:34;;;;;;;13.95;10.52;;;;;;;-143.21;63.35;71996.81;5071172;28;20197;-81
2023/09/03 05:15:01;;;;;;;12.05;10.73;;;;;;;-143.21;63.25;72000.78;5072108;28;20652;-80
2023/09/03 05:17:28;;;;;;;13.15;10.88;;;;;;;-143.21;63.50;72006.75;5072251;28;20216;-80
2023/09/03 05:19:55;;;;;;;13.68;10.82;;;;;;;-143.21;63.54;72008.72;5072143;28;20201;-81
2023/09/03 05:22:21;;;;;;;14.05;10.68;;;;;;;-143.21;63.93;72020.63;5072243;28;20647;-81
2023/09/03 05:24:48;;;;;;;14.55;10.73;;;;;;;-143.21;64.08;72026.56;5072437;28;20586;-81
2023/09/03 05:27:16;;;;;;;13.75;10.90;;;;;;;-143.21;64.49;72032.53;5069355;28;20644;-81
2023/09/03 05:29:43;;;;;;;18.17;11.18;;;;;;;-143.21;64.38;72038.47;5071758;28;20702;-81
2023/09/03 05:32:10;;;;;;;13.95;11.00;;;;;;;-143.21;64.54;72040.44;5072234;28;20224;-80
2023/09/03 05:34:37;;;;;;;15.50;11.23;;;;;;;-143.21;64.38;72038.47;5071629;28;20639;-81
2023/09/03 05:37:04;;;;;;;14.57;11.32;;;;;;;-143.21;64.55;72038.47;5071924;28;20272;-82
2023/09/03 05:39:32;;;;;;;14.90;11.65;;;;;;;-143.21;64.59;72038.47;5072054;28;20205;-81
2023/09/03 05:41:59;;;;;;;18.45;11.93;;;;;;;-143.21;64.43;72032.53;5071865;28;20259;-81
2023/09/03 05:44:27;;;;;;;16.35;11.40;;;;;;;-143.21;64.28;72026.56;5071028;28;20205;-82
2023/09/03 05:46:54;;;;;;;15.93;12.43;;;;;;;-143.21;64.26;72032.53;5072057;28;20220;-81
2023/09/03 05:49:21;;;;;;;13.55;10.77;;;;;;;-143.21;64.04;72018.63;5071121;28;20236;-81
2023/09/03 05:51:47;;;;;;;18.90;11.63;;;;;;;-143.21;62.68;71990.88;5067318;28;20201;-82
2023/09/03 05:54:14;;;;;;;15.98;11.05;;;;;;;-143.21;62.75;71996.81;5071280;28;20212;-82
2023/09/03 05:56:41;;;;;;;14.25;11.23;;;;;;;-143.21;62.13;71977.00;5070615;28;20205;-82
2023/09/03 05:59:15;;;;;;;19.90;10.73;;;;;;;-143.21;62.21;71965.09;5071143;28;20734;-83
2023/09/03 06:01:44;;;;;;;14.30;11.30;;;;;;;-143.21;62.15;71955.19;5071155;28;20205;-82
2023/09/03 06:04:15;;;;;;;15.73;11.05;;;;;;;-143.21;61.84;71959.16;5070965;28;20232;-81
2023/09/03 06:06:41;;;;;;;13.77;10.68;;;;;;;-143.21;61.81;71963.13;5071701;28;20243;-89
2023/09/03 06:09:09;;;;;;;15.52;11.48;;;;;;;-143.21;61.83;71955.19;5071772;28;20778;-89
2023/09/03 06:11:36;;;;;;;13.35;11.02;;;;;;;-143.21;62.15;71957.16;5071625;28;20197;-89
2023/09/03 06:14:03;;;;;;;12.23;10.60;;;;;;;-143.21;62.02;71959.16;5071917;28;20206;-87
2023/09/03 06:16:30;;;;;;;12.50;10.63;;;;;;;-143.21;62.15;71959.16;5073898;28;20266;-85
2023/09/03 06:18:59;;;;;;;16.27;11.00;;;;;;;-143.21;62.15;71963.13;5072512;28;20674;-85
2023/09/03 06:21:26;;;;;;;15.25;10.35;;;;;;;-143.21;62.16;71947.25;5071438;28;20741;-88
2023/09/03 06:23:54;;;;;;;18.98;11.43;;;;;;;-143.21;62.23;71945.28;5071363;28;20197;-87
2023/09/03 06:26:21;;;;;;;14.98;10.63;;;;;;;-143.21;61.98;71935.34;5072105;28;20703;-88
2023/09/03 06:28:48;;;;;;;13.52;10.77;;;;;;;-143.21;61.96;71921.47;5069210;28;20226;-88
2023/09/03 06:31:15;;;;;;;16.13;10.45;;;;;;;-143.21;60.78;71873.88;5071973;28;20259;-89
2023/09/03 06:33:42;;;;;;;12.70;9.95;;;;;;;-143.21;59.53;71848.09;5073040;28;21127;-88
2023/09/03 06:36:11;;;;;;;13.05;9.98;;;;;;;-143.21;59.05;71828.28;5077247;28;20202;-90
2023/09/03 06:38:39;;;;;;;12.88;9.90;;;;;;;-143.21;58.53;71828.28;5075174;28;20592;-88
2023/09/03 06:41:06;;;;;;;11.82;9.88;;;;;;;-143.21;58.44;71828.28;5076822;28;20216;-89
2023/09/03 06:43:33;;;;;;;12.90;10.02;;;;;;;-143.21;58.63;71832.25;5076918;28;20198;-88
2023/09/03 06:46:00;;;;;;;13.07;9.63;;;;;;;-143.21;58.53;71830.25;5080874;28;20193;-88
2023/09/03 06:48:29;;;;;;;15.25;9.77;;;;;;;-143.21;58.72;71832.25;5074396;28;20208;-88
2023/09/03 06:50:56;;;;;;;13.85;9.48;;;;;;;-143.21;58.45;71826.28;5074633;28;20202;-82
2023/09/03 06:53:25;;;;;;;15.68;10.30;;;;;;;-143.21;58.50;71816.38;5073418;28;20205;-82
2023/09/03 06:55:52;;;;;;;11.80;9.68;;;;;;;-143.21;57.83;71798.53;5073543;28;20281;-82
2023/09/03 06:58:22;;;;;;;19.70;10.20;;;;;;;-143.21;57.87;71796.56;5072727;28;20657;-82
2023/09/03 07:00:49;;;;;;;18.42;10.40;;;;;;;-143.21;57.39;71780.69;5071484;28;20201;-82
2023/09/03 07:03:16;;;;;;;12.30;10.00;;;;;;;-143.21;57.23;71780.69;5070476;28;20232;-82
2023/09/03 07:05:49;;;;;;;17.20;10.52;;;;;;;-143.21;56.90;71768.78;5069896;28;20208;-83
2023/09/03 07:08:16;;;;;;;13.80;9.55;;;;;;;-143.21;56.40;71748.97;5067106;28;20225;-81
2023/09/03 07:10:44;;;;;;;12.32;9.48;;;;;;;-143.21;55.72;71723.19;5070145;28;20316;-81
2023/09/03 07:13:12;;;;;;;11.93;9.30;;;;;;;-143.21;55.53;71713.28;5070395;28;20205;-83
2023/09/03 07:15:38;;;;;;;13.38;9.27;;;;;;;-143.21;55.50;71717.25;5070796;28;20271;-82
2023/09/03 07:18:06;;;;;;;13.05;9.98;;;;;;;-143.21;55.26;71711.28;5069317;28;20213;-83
2023/09/03 07:20:33;;;;;;;13.23;9.25;;;;;;;-143.21;55.67;71717.25;5069100;28;20207;-83
2023/09/03 07:23:00;;;;;;;15.85;10.02;;;;;;;-143.21;55.86;71723.19;5070016;28;20229;-83
2023/09/03 07:25:26;;;;;;;13.85;9.73;;;;;;;-143.21;55.69;71717.25;5069920;28;20197;-82
2023/09/03 07:27:56;;;;;;;16.33;10.50;;;;;;;-143.21;55.95;71715.25;5070270;28;20205;-83
2023/09/03 07:30:23;;;;;;;12.38;9.55;;;;;;;-143.21;55.62;71715.25;5069702;28;20221;-83
2023/09/03 07:32:49;;;;;;;13.55;9.20;;;;;;;-143.21;55.56;71705.34;5069472;28;20201;-83
2023/09/03 07:35:16;;;;;;;12.77;9.80;;;;;;;-143.21;55.35;71697.41;5069313;28;20206;-83
2023/09/03 07:37:44;;;;;;;10.73;9.63;;;;;;;-143.21;54.98;71697.41;5066847;28;20203;-83
2023/09/03 07:40:12;;;;;;;14.27;9.82;;;;;;;-143.21;55.05;71693.44;5068159;28;20205;-83
2023/09/03 07:42:39;;;;;;;10.85;9.13;;;;;;;-143.21;54.72;71683.53;5067981;28;20887;-91
2023/09/03 07:45:09;;;;;;;11.40;8.48;;;;;;;-143.21;54.85;71675.59;5068842;28;20202;-88
2023/09/03 07:47:36;;;;;;;11.98;9.18;;;;;;;-143.21;53.85;71661.72;5067118;28;20640;-89
2023/09/03 07:50:05;;;;;;;14.48;9.55;;;;;;;-143.21;53.28;71645.88;5067955;28;20217;-89
2023/09/03 07:52:32;;;;;;;16.63;9.15;;;;;;;-143.21;53.30;71633.97;5068984;28;20280;-87
2023/09/03 07:54:59;;;;;;;13.70;8.55;;;;;;;-143.21;53.08;71606.22;5067146;28;20197;-88
2023/09/03 07:57:27;;;;;;;11.55;8.85;;;;;;;-143.21;52.85;71584.41;5067131;28;20205;-88
2023/09/03 07:59:54;;;;;;;17.27;9.63;;;;;;;-143.21;51.88;71558.63;5066074;28;20840;-88
2023/09/03 08:02:23;;;;;;;12.98;8.82;;;;;;;-143.21;51.54;71558.63;5069128;28;20205;-85
2023/09/03 08:04:50;;;;;;;10.85;8.80;;;;;;;-143.21;51.25;71558.63;5069408;28;20218;-88
2023/09/03 08:07:17;;;;;;;12.05;8.35;;;;;;;-143.21;50.99;71552.69;5069867;28;20221;-87
2023/09/03 08:09:43;;;;;;;13.18;8.45;;;;;;;-143.21;50.83;71554.66;5069638;28;20219;-83
2023/09/03 08:12:10;;;;;;;10.40;8.45;;;;;;;-143.21;50.83;71544.75;5069477;28;20208;-87
2023/09/03 08:14:38;;;;;;;11.90;9.05;;;;;;;-143.21;50.70;71534.81;5068948;28;20205;-90
2023/09/03 08:17:05;;;;;;;10.68;8.50;;;;;;;-143.21;49.80;71522.94;5068983;28;20232;-89
2023/09/03 08:19:34;;;;;;;14.02;8.75;;;;;;;-143.21;50.28;71516.97;5069660;28;20209;-86
2023/09/03 08:22:02;;;;;;;10.35;8.23;;;;;;;-143.21;49.05;71505.09;5073031;28;20686;-87
2023/09/03 08:24:29;;;;;;;10.75;8.45;;;;;;;-143.21;48.43;71499.13;5071958;28;20274;-87
2023/09/03 08:26:56;;;;;;;10.13;7.78;;;;;;;-143.21;48.58;71489.22;5074979;28;20205;-87
2023/09/03 08:29:23;;;;;;;10.98;8.20;;;;;;;-143.21;48.21;71463.44;5076512;28;20225;-86
2023/09/03 08:31:50;;;;;;;11.52;7.82;;;;;;;-143.21;48.24;71453.53;5073328;28;20201;-86
2023/09/03 08:34:17;;;;;;;11.73;8.60;;;;;;;-143.21;47.76;71435.69;5073703;28;20220;-87
2023/09/03 08:36:47;;;;;;;11.30;7.90;;;;;;;-143.21;46.67;71421.81;5072961;28;20554;-86
2023/09/03 08:39:14;;;;;;;12.27;7.60;;;;;;;-143.21;46.00;71409.91;5069805;28;20219;-85
2023/09/03 08:41:41;;;;;;;11.07;7.57;;;;;;;-143.21;45.66;71400.00;5071226;28;20211;-85
2023/09/03 08:44:20;;;;;;;11.35;8.05;;;;;;;-143.21;44.57;71384.16;5071922;28;20216;-86
2023/09/03 08:46:52;;;;;;;11.15;6.95;;;;;;;-143.21;44.29;71372.25;5071205;28;20197;-86
2023/09/03 08:49:19;;;;;;;9.02;7.32;;;;;;;-143.21;43.19;71356.38;5070061;28;20213;-80
2023/09/03 08:51:48;;;;;;;7.18;6.45;;;;;;;-143.21;43.71;71338.53;5068321;28;20205;-79
2023/09/03 08:54:15;;;;;;;13.40;7.95;;;;;;;-143.21;44.30;71322.69;5068355;28;20212;-80
2023/09/03 08:56:42;;;;;;;11.38;7.07;;;;;;;-143.21;43.67;71288.97;5071844;28;20296;-79
2023/09/03 08:59:10;;;;;;;12.25;7.25;;;;;;;-143.21;41.93;71265.19;5071402;28;20216;-79
2023/09/03 09:01:39;;;;;;;11.25;6.32;;;;;;;-143.21;40.53;71241.41;5070986;28;20716;-79
2023/09/03 09:04:08;;;;;;;7.45;6.57;;;;;;;-143.21;40.31;71213.66;5070910;28;20241;-78
2023/09/03 09:06:39;;;;;;;11.18;6.00;;;;;;;-143.21;39.15;71181.94;5070916;28;20298;-79
2023/09/03 09:09:09;;;;;;;8.50;5.82;;;;;;;-143.21;38.90;71177.97;5071204;28;20333;-79
2023/09/03 09:11:40;;;;;;;8.15;6.30;;;;;;;-143.21;39.21;71160.13;5070660;28;20237;-78
2023/09/03 09:14:23;;;;;;;8.02;6.72;;;;;;;-143.21;38.07;71140.28;5071105;28;20209;-79
2023/09/03 09:16:50;;;;;;;7.03;6.32;;;;;;;-143.21;38.13;71126.41;5071327;28;20204;-79
2023/09/03 09:19:17;;;;;;;7.78;6.97;;;;;;;-143.21;37.71;71130.38;5071628;28;20212;-79
2023/09/03 09:21:44;;;;;;;8.60;6.53;;;;;;;-143.21;38.13;71130.38;5071159;28;20267;-79
2023/09/03 09:24:13;;;;;;;7.65;6.55;;;;;;;-143.21;38.03;71126.41;5071539;28;20201;-79
2023/09/03 09:26:40;;;;;;;8.30;7.13;;;;;;;-143.21;37.86;71102.63;5070790;28;20217;-80
2023/09/03 09:29:09;;;;;;;9.73;6.90;;;;;;;-143.21;37.90;71082.81;5071101;28;20774;-80
2023/09/03 09:31:37;;;;;;;6.55;5.95;;;;;;;-143.21;36.40;71039.19;5070157;28;20201;-79
2023/09/03 09:34:12;;;;;;;8.57;6.38;;;;;;;-143.21;36.14;71007.47;5071089;28;20203;-79
2023/09/03 09:36:39;;;;;;;9.95;5.93;;;;;;;-143.21;35.56;70993.59;5070528;28;20216;-80
2023/09/03 09:39:07;;;;;;;7.65;5.78;;;;;;;-143.21;34.97;70973.78;5069535;28;20579;-80
2023/09/03 09:41:37;;;;;;;6.82;6.13;;;;;;;-143.21;34.15;70975.75;5070959;28;20205;-79
2023/09/03 09:44:09;;;;;;;7.85;6.18;;;;;;;-143.21;35.17;70977.72;5070307;28;20238;-79
2023/09/03 09:46:36;;;;;;;9.32;6.30;;;;;;;-143.21;34.95;70955.94;5070068;28;20710;-79
2023/09/03 09:49:04;;;;;;;8.60;6.68;;;;;;;-143.21;35.32;70940.06;5070229;28;20209;-79
2023/09/03 09:51:32;;;;;;;7.55;6.35;;;;;;;-143.21;34.69;70904.38;5069943;28;20221;-79
2023/09/03 09:54:00;;;;;;;8.85;6.28;;;;;;;-143.21;34.17;70876.63;5070272;28;20660;-80
2023/09/03 09:56:28;;;;;;;7.45;6.43;;;;;;;-143.21;33.96;70846.91;5070455;28;20202;-79
2023/09/03 09:58:58;;;;;;;9.30;7.00;;;;;;;-143.21;34.46;70819.16;5070626;28;20645;-79
2023/09/03 10:01:42;;;;;;;7.57;6.70;;;;;;;-143.21;33.35;70777.53;5068665;28;20197;-79
2023/09/03 10:04:09;;;;;;;7.55;6.35;;;;;;;-143.21;32.57;70753.72;5068135;28;20310;-80
2023/09/03 10:06:37;;;;;;;7.35;5.90;;;;;;;-143.21;32.01;70741.84;5068153;28;20396;-79
2023/09/03 10:09:11;;;;;;;8.35;6.18;;;;;;;-143.21;31.91;70706.16;5068838;28;20201;-79
2023/09/03 10:11:38;;;;;;;5.93;5.32;;;;;;;-143.21;31.17;70686.34;5068739;28;20218;-80
2023/09/03 10:14:08;;;;;;;7.63;5.82;;;;;;;-143.21;30.83;70682.38;5068870;28;20946;-79
2023/09/03 10:16:36;;;;;;;7.60;5.60;;;;;;;-143.21;30.64;70670.47;5068394;28;20198;-80
2023/09/03 10:19:11;;;;;;;6.72;5.70;;;;;;;-143.21;30.46;70650.66;5069059;28;20212;-80
2023/09/03 10:21:40;;;;;;;7.63;5.53;;;;;;;-143.21;29.94;70616.97;5068603;28;20205;-79
2023/09/03 10:24:12;;;;;;;7.45;5.40;;;;;;;-143.21;29.40;70601.09;5068130;28;20212;-79
2023/09/03 10:26:42;;;;;;;7.32;5.78;;;;;;;-143.21;29.42;70599.13;5068452;28;20213;-79
2023/09/03 10:29:14;;;;;;;8.23;5.90;;;;;;;-143.21;29.18;70587.22;5068831;28;20209;-79
2023/09/03 10:31:44;;;;;;;5.72;5.07;;;;;;;-143.21;28.61;70575.34;5068350;28;20791;-79
2023/09/03 10:34:11;;;;;;;5.65;5.00;;;;;;;-143.21;28.65;70565.44;5068722;28;20228;-79
2023/09/03 10:36:38;;;;;;;5.80;5.20;;;;;;;-143.21;28.83;70545.59;5068515;28;20213;-79
2023/09/03 10:39:23;;;;;;;6.70;4.93;;;;;;;-143.21;28.45;70525.78;5068615;28;20298;-79
2023/09/03 10:42:34;;;;;;;6.78;5.13;;;;;;;-143.21;28.47;70509.94;5068077;28;20193;-78
2023/09/03 10:45:02;;;;;;;6.18;5.07;;;;;;;-143.21;28.26;70498.03;5052492;28;20205;-79
2023/09/03 10:47:29;;;;;;;8.30;5.13;;;;;;;-143.21;27.95;70480.19;5068145;28;20232;-79
2023/09/03 10:49:56;;;;;;;6.85;5.53;;;;;;;-143.21;27.76;70454.44;5067826;28;20799;-79
2023/09/03 10:52:37;;;;;;;5.45;4.65;;;;;;;-143.21;27.96;70428.66;5068585;28;20201;-79
2023/09/03 10:55:15;;;;;;;8.05;5.20;;;;;;;-143.21;28.07;70400.91;5068697;28;20618;-79
2023/09/03 10:57:44;;;;;;;5.78;5.15;;;;;;;-143.21;27.87;70369.19;5068141;28;20635;-79
2023/09/03 11:00:15;;;;;;;6.15;5.22;;;;;;;-143.21;28.00;70345.41;5068768;28;20205;-79
2023/09/03 11:02:43;;;;;;;5.78;4.75;;;;;;;-143.21;27.87;70347.41;5067836;28;20212;-80
2023/09/03 11:05:15;;;;;;;7.93;5.05;;;;;;;-143.21;27.94;70331.53;5068291;28;20577;-78
2023/09/03 11:07:43;;;;;;;7.35;5.15;;;;;;;-143.21;27.53;70325.59;5067768;28;20221;-78
2023/09/03 11:10:40;;;;;;;6.65;5.10;;;;;;;-143.21;27.39;70313.72;5068101;28;20233;-78
2023/09/03 11:13:14;;;;;;;6.20;5.25;;;;;;;-143.21;27.61;70282.00;4980118;28;20980;-79